createdAt,value
2019-05-11T00:01:28.386Z,14
2019-05-11T00:11:27.543Z,14
2019-05-11T00:21:27.359Z,14
2019-05-11T00:31:26.969Z,14
2019-05-11T00:41:27.947Z,14
2019-05-11T00:51:28.018Z,14
2019-05-11T01:01:28.069Z,14
2019-05-11T01:11:29.254Z,14
2019-05-11T01:21:27.267Z,13
2019-05-11T01:31:27.380Z,14
2019-05-11T01:41:26.915Z,14
2019-05-11T01:51:28.059Z,14
2019-05-11T02:01:27.517Z,14
2019-05-11T02:11:27.081Z,14
2019-05-11T02:21:28.223Z,13
2019-05-11T02:31:28.237Z,13
2019-05-11T02:41:38.425Z,14
2019-05-11T02:51:27.893Z,14
2019-05-11T03:01:27.566Z,13
2019-05-11T03:11:27.332Z,14
2019-05-11T03:21:27.018Z,14
2019-05-11T03:31:27.589Z,14
2019-05-11T03:41:27.411Z,13
2019-05-11T03:51:30.978Z,14
2019-05-11T04:01:27.835Z,13
2019-05-11T04:11:27.474Z,14
2019-05-11T04:21:27.635Z,14
2019-05-11T04:31:27.373Z,14
2019-05-11T04:41:27.827Z,14
2019-05-11T04:51:27.952Z,14
2019-05-11T05:01:26.611Z,14
2019-05-11T05:11:36.492Z,14
2019-05-11T05:21:28.339Z,14
2019-05-11T05:31:26.840Z,14
2019-05-11T05:41:28.461Z,14
2019-05-11T05:51:27.914Z,15
2019-05-11T06:01:28.085Z,15
2019-05-11T06:11:27.215Z,15
2019-05-11T06:21:27.668Z,15
2019-05-11T06:31:27.447Z,15
2019-05-11T06:41:26.548Z,15
2019-05-11T06:51:27.918Z,16
2019-05-11T07:01:28.645Z,16
2019-05-11T07:11:27.657Z,16
2019-05-11T07:21:28.563Z,16
2019-05-11T07:31:27.408Z,16
2019-05-11T07:41:29.610Z,17
2019-05-11T07:51:30.179Z,16
2019-05-11T08:01:29.495Z,17
2019-05-11T08:11:32.229Z,16
2019-05-11T08:21:29.694Z,17
2019-05-11T08:31:29.177Z,17
2019-05-11T08:41:29.359Z,18
2019-05-11T08:51:29.231Z,18
2019-05-11T09:01:31.289Z,18
2019-05-11T09:11:29.698Z,18
2019-05-11T09:21:29.280Z,18
2019-05-11T09:31:29.314Z,18
2019-05-11T09:41:29.845Z,18
2019-05-11T09:51:29.930Z,18
2019-05-11T10:01:30.916Z,18
2019-05-11T10:11:28.776Z,19
2019-05-11T10:21:30.950Z,19
2019-05-11T10:31:28.242Z,19
2019-05-11T10:41:28.168Z,20
2019-05-11T10:51:28.548Z,20
2019-05-11T11:01:29.771Z,20
2019-05-11T11:11:29.078Z,20
2019-05-11T11:21:29.110Z,20
2019-05-11T11:31:29.920Z,20
2019-05-11T11:41:27.109Z,20
2019-05-11T11:51:29.192Z,20
2019-05-11T12:01:29.386Z,21
2019-05-11T12:11:29.253Z,21
2019-05-11T12:21:28.329Z,20
2019-05-11T12:31:33.694Z,21
2019-05-11T12:41:33.471Z,21
2019-05-11T12:51:29.234Z,21
2019-05-11T13:01:25.954Z,21
2019-05-11T13:11:29.316Z,21
2019-05-11T13:21:29.913Z,22
2019-05-11T13:31:29.126Z,21
2019-05-11T13:41:29.210Z,21
2019-05-11T13:51:29.233Z,21
2019-05-11T14:01:29.092Z,22
2019-05-11T14:11:29.222Z,22
2019-05-11T14:21:28.631Z,22
2019-05-11T14:31:29.549Z,22
2019-05-11T14:41:28.390Z,22
2019-05-11T14:51:29.480Z,22
2019-05-11T15:01:28.506Z,21
2019-05-11T15:11:29.270Z,22
2019-05-11T15:21:28.622Z,21
2019-05-11T15:31:29.070Z,21
2019-05-11T15:41:29.262Z,21
2019-05-11T15:51:29.701Z,21
2019-05-11T16:01:30.147Z,21
2019-05-11T16:11:29.672Z,21
2019-05-11T16:21:29.753Z,22
2019-05-11T16:31:28.407Z,21
2019-05-11T16:41:29.059Z,22
2019-05-11T16:51:29.689Z,22
2019-05-11T17:01:26.293Z,21
2019-05-11T17:11:29.623Z,21
2019-05-11T17:21:30.727Z,21
2019-05-11T17:31:27.098Z,20
2019-05-11T17:41:29.226Z,21
2019-05-11T17:51:29.171Z,21
2019-05-11T18:01:28.270Z,20
2019-05-11T18:11:31.230Z,20
2019-05-11T18:21:29.412Z,20
2019-05-11T18:31:28.391Z,20
2019-05-11T18:41:28.132Z,20
2019-05-11T18:51:26.497Z,20
2019-05-11T19:01:29.119Z,19
2019-05-11T19:11:29.506Z,19
2019-05-11T19:21:28.641Z,19
2019-05-11T19:31:29.387Z,19
2019-05-11T19:41:29.158Z,19
2019-05-11T19:51:30.348Z,19
2019-05-11T20:01:28.619Z,19
2019-05-11T20:11:29.226Z,19
2019-05-11T20:21:29.545Z,19
2019-05-11T20:31:29.011Z,19
2019-05-11T20:41:29.199Z,19
2019-05-11T20:51:37.996Z,18
2019-05-11T21:01:29.974Z,18
2019-05-11T21:11:28.509Z,18
2019-05-11T21:21:45.172Z,18
2019-05-11T21:31:30.459Z,18
2019-05-11T21:41:32.031Z,18
2019-05-11T21:51:30.406Z,18
2019-05-11T22:01:29.401Z,18
2019-05-11T22:11:29.708Z,18
2019-05-11T22:21:29.337Z,18
2019-05-11T22:31:29.471Z,18
2019-05-11T22:41:26.457Z,18
2019-05-11T22:51:29.367Z,18
2019-05-11T23:01:29.559Z,18
2019-05-11T23:11:28.332Z,18
2019-05-11T23:21:31.339Z,18
2019-05-11T23:31:29.167Z,18
2019-05-11T23:41:30.132Z,17
2019-05-11T23:51:29.141Z,17
